sensor_id;sensor_type;location;lat;lon;timestamp;temperature;humidity
8633;DHT22;4354;49.832;10.746;2023-06-22T00:01:20;17.10;99.90
8633;DHT22;4354;49.832;10.746;2023-06-22T00:03:49;17.00;99.90
8633;DHT22;4354;49.832;10.746;2023-06-22T00:06:16;17.10;99.90
8633;DHT22;4354;49.832;10.746;2023-06-22T00:08:43;17.10;99.90
8633;DHT22;4354;49.832;10.746;2023-06-22T00:11:10;17.20;99.90
8633;DHT22;4354;49.832;10.746;2023-06-22T00:13:38;17.20;99.90
8633;DHT22;4354;49.832;10.746;2023-06-22T00:16:05;17.20;99.90
8633;DHT22;4354;49.832;10.746;2023-06-22T00:18:32;17.30;99.90
8633;DHT22;4354;49.832;10.746;2023-06-22T00:20:59;17.20;99.90
8633;DHT22;4354;49.832;10.746;2023-06-22T00:23:26;17.30;99.90
8633;DHT22;4354;49.832;10.746;2023-06-22T00:25:54;17.30;99.90
8633;DHT22;4354;49.832;10.746;2023-06-22T00:28:21;17.20;99.90
8633;DHT22;4354;49.832;10.746;2023-06-22T00:30:49;17.30;99.90
8633;DHT22;4354;49.832;10.746;2023-06-22T00:33:16;17.20;99.90
8633;DHT22;4354;49.832;10.746;2023-06-22T00:35:43;17.30;99.90
8633;DHT22;4354;49.832;10.746;2023-06-22T00:38:10;17.20;99.90
8633;DHT22;4354;49.832;10.746;2023-06-22T00:40:38;17.30;99.90
8633;DHT22;4354;49.832;10.746;2023-06-22T00:43:05;17.20;99.90
8633;DHT22;4354;49.832;10.746;2023-06-22T00:45:32;17.20;99.90
8633;DHT22;4354;49.832;10.746;2023-06-22T00:47:59;17.20;99.90
8633;DHT22;4354;49.832;10.746;2023-06-22T00:50:29;17.10;99.90
8633;DHT22;4354;49.832;10.746;2023-06-22T00:53:03;17.10;99.90
8633;DHT22;4354;49.832;10.746;2023-06-22T00:55:45;17.10;99.90
8633;DHT22;4354;49.832;10.746;2023-06-22T00:58:19;17.10;99.90
8633;DHT22;4354;49.832;10.746;2023-06-22T01:00:49;17.10;99.90
8633;DHT22;4354;49.832;10.746;2023-06-22T01:03:16;17.10;99.90
8633;DHT22;4354;49.832;10.746;2023-06-22T01:05:44;17.10;99.90
8633;DHT22;4354;49.832;10.746;2023-06-22T01:08:35;17.10;99.90
8633;DHT22;4354;49.832;10.746;2023-06-22T01:11:16;17.00;99.90
8633;DHT22;4354;49.832;10.746;2023-06-22T01:16:33;16.90;99.90
8633;DHT22;4354;49.832;10.746;2023-06-22T01:19:51;16.90;99.90
8633;DHT22;4354;49.832;10.746;2023-06-22T01:21:53;17.00;99.90
8633;DHT22;4354;49.832;10.746;2023-06-22T01:24:30;17.00;99.90
8633;DHT22;4354;49.832;10.746;2023-06-22T01:27:36;17.00;99.90
8633;DHT22;4354;49.832;10.746;2023-06-22T01:30:08;17.00;99.90
8633;DHT22;4354;49.832;10.746;2023-06-22T01:32:38;17.00;99.90
8633;DHT22;4354;49.832;10.746;2023-06-22T01:35:08;16.90;99.90
8633;DHT22;4354;49.832;10.746;2023-06-22T01:37:37;16.90;99.90
8633;DHT22;4354;49.832;10.746;2023-06-22T01:40:08;16.90;99.90
8633;DHT22;4354;49.832;10.746;2023-06-22T01:42:36;16.90;99.90
8633;DHT22;4354;49.832;10.746;2023-06-22T01:45:03;16.90;99.90
8633;DHT22;4354;49.832;10.746;2023-06-22T01:47:31;16.90;99.90
8633;DHT22;4354;49.832;10.746;2023-06-22T01:49:58;16.90;99.90
8633;DHT22;4354;49.832;10.746;2023-06-22T01:52:25;16.90;99.90
8633;DHT22;4354;49.832;10.746;2023-06-22T01:54:52;16.90;99.90
8633;DHT22;4354;49.832;10.746;2023-06-22T01:57:19;16.80;99.90
8633;DHT22;4354;49.832;10.746;2023-06-22T02:02:21;16.80;99.90
8633;DHT22;4354;49.832;10.746;2023-06-22T02:05:08;16.80;99.90
8633;DHT22;4354;49.832;10.746;2023-06-22T02:10:28;16.80;99.90
8633;DHT22;4354;49.832;10.746;2023-06-22T02:12:57;16.80;99.90
8633;DHT22;4354;49.832;10.746;2023-06-22T02:15:25;16.80;99.90
8633;DHT22;4354;49.832;10.746;2023-06-22T02:17:52;16.80;99.90
8633;DHT22;4354;49.832;10.746;2023-06-22T02:20:19;16.70;99.90
8633;DHT22;4354;49.832;10.746;2023-06-22T02:22:46;16.70;99.90
8633;DHT22;4354;49.832;10.746;2023-06-22T02:25:14;16.80;99.90
8633;DHT22;4354;49.832;10.746;2023-06-22T02:27:41;16.80;99.90
8633;DHT22;4354;49.832;10.746;2023-06-22T02:30:08;16.80;99.90
8633;DHT22;4354;49.832;10.746;2023-06-22T02:32:36;16.80;99.90
8633;DHT22;4354;49.832;10.746;2023-06-22T02:35:03;16.70;99.90
8633;DHT22;4354;49.832;10.746;2023-06-22T02:37:33;16.80;99.90
8633;DHT22;4354;49.832;10.746;2023-06-22T02:39:59;16.80;99.90
8633;DHT22;4354;49.832;10.746;2023-06-22T02:42:26;16.80;99.90
8633;DHT22;4354;49.832;10.746;2023-06-22T02:44:53;17.00;99.90
8633;DHT22;4354;49.832;10.746;2023-06-22T02:47:23;17.20;99.90
8633;DHT22;4354;49.832;10.746;2023-06-22T02:49:50;17.20;99.90
8633;DHT22;4354;49.832;10.746;2023-06-22T02:52:17;17.40;99.90
8633;DHT22;4354;49.832;10.746;2023-06-22T02:54:43;17.40;99.90
8633;DHT22;4354;49.832;10.746;2023-06-22T02:57:12;17.50;99.90
8633;DHT22;4354;49.832;10.746;2023-06-22T02:59:41;17.50;99.90
8633;DHT22;4354;49.832;10.746;2023-06-22T03:02:08;17.60;99.90
8633;DHT22;4354;49.832;10.746;2023-06-22T03:04:35;17.60;99.90
8633;DHT22;4354;49.832;10.746;2023-06-22T03:07:02;17.60;99.90
8633;DHT22;4354;49.832;10.746;2023-06-22T03:09:30;17.60;99.90
8633;DHT22;4354;49.832;10.746;2023-06-22T03:11:57;17.60;99.90
8633;DHT22;4354;49.832;10.746;2023-06-22T03:14:24;17.60;99.90
8633;DHT22;4354;49.832;10.746;2023-06-22T03:16:51;17.50;99.90
8633;DHT22;4354;49.832;10.746;2023-06-22T03:19:18;17.50;99.90
8633;DHT22;4354;49.832;10.746;2023-06-22T03:21:46;17.50;99.90
8633;DHT22;4354;49.832;10.746;2023-06-22T03:24:12;17.40;99.90
8633;DHT22;4354;49.832;10.746;2023-06-22T03:26:39;17.40;99.90
8633;DHT22;4354;49.832;10.746;2023-06-22T03:29:06;17.40;99.90
8633;DHT22;4354;49.832;10.746;2023-06-22T03:31:33;17.40;99.90
8633;DHT22;4354;49.832;10.746;2023-06-22T03:33:59;17.40;99.90
8633;DHT22;4354;49.832;10.746;2023-06-22T03:36:26;17.50;99.90
8633;DHT22;4354;49.832;10.746;2023-06-22T03:38:53;17.50;99.90
8633;DHT22;4354;49.832;10.746;2023-06-22T03:41:20;17.50;99.90
8633;DHT22;4354;49.832;10.746;2023-06-22T03:43:47;17.50;99.90
8633;DHT22;4354;49.832;10.746;2023-06-22T03:46:14;17.60;99.90
8633;DHT22;4354;49.832;10.746;2023-06-22T03:48:41;17.70;99.90
8633;DHT22;4354;49.832;10.746;2023-06-22T03:51:07;17.80;99.90
8633;DHT22;4354;49.832;10.746;2023-06-22T03:53:34;18.00;99.90
8633;DHT22;4354;49.832;10.746;2023-06-22T03:56:01;18.00;99.90
8633;DHT22;4354;49.832;10.746;2023-06-22T03:58:28;18.10;99.90
8633;DHT22;4354;49.832;10.746;2023-06-22T04:00:59;18.20;99.90
8633;DHT22;4354;49.832;10.746;2023-06-22T04:03:26;18.20;99.90
8633;DHT22;4354;49.832;10.746;2023-06-22T04:05:53;18.20;99.90
8633;DHT22;4354;49.832;10.746;2023-06-22T04:08:20;18.20;99.90
8633;DHT22;4354;49.832;10.746;2023-06-22T04:10:47;18.20;99.90
8633;DHT22;4354;49.832;10.746;2023-06-22T04:13:14;18.20;99.90
8633;DHT22;4354;49.832;10.746;2023-06-22T04:15:41;18.20;99.90
8633;DHT22;4354;49.832;10.746;2023-06-22T04:18:07;18.30;99.90
8633;DHT22;4354;49.832;10.746;2023-06-22T04:20:34;18.30;99.90
8633;DHT22;4354;49.832;10.746;2023-06-22T04:23:02;18.30;99.90
8633;DHT22;4354;49.832;10.746;2023-06-22T04:25:29;18.30;99.90
8633;DHT22;4354;49.832;10.746;2023-06-22T04:27:55;18.40;99.90
8633;DHT22;4354;49.832;10.746;2023-06-22T04:30:22;18.40;99.90
8633;DHT22;4354;49.832;10.746;2023-06-22T04:32:49;18.50;99.90
8633;DHT22;4354;49.832;10.746;2023-06-22T04:35:24;18.50;99.90
8633;DHT22;4354;49.832;10.746;2023-06-22T04:37:52;18.50;99.90
8633;DHT22;4354;49.832;10.746;2023-06-22T04:40:24;18.60;99.90
8633;DHT22;4354;49.832;10.746;2023-06-22T04:42:52;18.70;99.90
8633;DHT22;4354;49.832;10.746;2023-06-22T04:45:20;18.80;99.90
8633;DHT22;4354;49.832;10.746;2023-06-22T04:47:48;18.90;99.90
8633;DHT22;4354;49.832;10.746;2023-06-22T04:50:15;18.90;99.90
8633;DHT22;4354;49.832;10.746;2023-06-22T04:52:42;19.00;99.90
8633;DHT22;4354;49.832;10.746;2023-06-22T04:55:09;19.00;99.90
8633;DHT22;4354;49.832;10.746;2023-06-22T04:57:39;18.90;99.90
8633;DHT22;4354;49.832;10.746;2023-06-22T05:00:06;19.00;99.90
8633;DHT22;4354;49.832;10.746;2023-06-22T05:02:44;19.10;99.90
8633;DHT22;4354;49.832;10.746;2023-06-22T05:05:13;19.10;99.90
8633;DHT22;4354;49.832;10.746;2023-06-22T05:07:44;19.20;99.90
8633;DHT22;4354;49.832;10.746;2023-06-22T05:10:11;19.20;99.90
8633;DHT22;4354;49.832;10.746;2023-06-22T05:12:41;19.20;99.90
8633;DHT22;4354;49.832;10.746;2023-06-22T05:15:10;19.30;99.90
8633;DHT22;4354;49.832;10.746;2023-06-22T05:17:37;19.50;99.90
8633;DHT22;4354;49.832;10.746;2023-06-22T05:20:10;19.50;99.90
8633;DHT22;4354;49.832;10.746;2023-06-22T05:22:38;19.60;99.90
8633;DHT22;4354;49.832;10.746;2023-06-22T05:25:09;19.70;99.90
8633;DHT22;4354;49.832;10.746;2023-06-22T05:27:37;19.80;99.90
8633;DHT22;4354;49.832;10.746;2023-06-22T05:30:07;19.80;99.90
8633;DHT22;4354;49.832;10.746;2023-06-22T05:32:35;19.80;99.90
8633;DHT22;4354;49.832;10.746;2023-06-22T05:35:03;19.90;95.70
8633;DHT22;4354;49.832;10.746;2023-06-22T05:37:30;20.00;98.70
8633;DHT22;4354;49.832;10.746;2023-06-22T05:39:57;20.20;99.90
8633;DHT22;4354;49.832;10.746;2023-06-22T05:42:24;20.40;99.90
8633;DHT22;4354;49.832;10.746;2023-06-22T05:44:52;20.50;91.70
8633;DHT22;4354;49.832;10.746;2023-06-22T05:47:20;20.70;93.20
8633;DHT22;4354;49.832;10.746;2023-06-22T05:49:47;21.00;77.90
8633;DHT22;4354;49.832;10.746;2023-06-22T05:52:13;21.30;55.70
8633;DHT22;4354;49.832;10.746;2023-06-22T05:54:40;21.60;1.00
8633;DHT22;4354;49.832;10.746;2023-06-22T05:57:08;22.00;1.00
8633;DHT22;4354;49.832;10.746;2023-06-22T05:59:35;22.40;1.00
8633;DHT22;4354;49.832;10.746;2023-06-22T06:02:02;22.90;1.00
8633;DHT22;4354;49.832;10.746;2023-06-22T06:04:28;23.60;1.00
8633;DHT22;4354;49.832;10.746;2023-06-22T06:06:55;24.20;1.00
8633;DHT22;4354;49.832;10.746;2023-06-22T06:09:22;25.00;1.00
8633;DHT22;4354;49.832;10.746;2023-06-22T06:11:49;25.90;1.00
8633;DHT22;4354;49.832;10.746;2023-06-22T06:14:16;26.70;1.00
8633;DHT22;4354;49.832;10.746;2023-06-22T06:16:43;27.10;1.00
8633;DHT22;4354;49.832;10.746;2023-06-22T06:19:10;27.90;1.00
8633;DHT22;4354;49.832;10.746;2023-06-22T06:21:37;28.70;1.00
8633;DHT22;4354;49.832;10.746;2023-06-22T06:24:04;29.30;99.90
8633;DHT22;4354;49.832;10.746;2023-06-22T06:26:31;29.70;99.90
8633;DHT22;4354;49.832;10.746;2023-06-22T06:29:00;29.70;99.90
8633;DHT22;4354;49.832;10.746;2023-06-22T06:31:27;30.20;99.90
8633;DHT22;4354;49.832;10.746;2023-06-22T06:33:57;30.80;99.90
8633;DHT22;4354;49.832;10.746;2023-06-22T06:36:24;30.90;99.90
8633;DHT22;4354;49.832;10.746;2023-06-22T06:38:50;31.00;99.90
8633;DHT22;4354;49.832;10.746;2023-06-22T06:41:18;31.00;99.90
8633;DHT22;4354;49.832;10.746;2023-06-22T06:43:45;31.70;99.90
8633;DHT22;4354;49.832;10.746;2023-06-22T06:46:12;32.10;99.90
8633;DHT22;4354;49.832;10.746;2023-06-22T06:48:39;32.30;99.90
8633;DHT22;4354;49.832;10.746;2023-06-22T06:51:06;32.60;99.90
8633;DHT22;4354;49.832;10.746;2023-06-22T06:53:37;32.70;99.90
8633;DHT22;4354;49.832;10.746;2023-06-22T06:56:04;32.70;99.90
8633;DHT22;4354;49.832;10.746;2023-06-22T06:58:32;32.70;99.90
8633;DHT22;4354;49.832;10.746;2023-06-22T07:00:59;32.90;99.90
8633;DHT22;4354;49.832;10.746;2023-06-22T07:03:26;32.90;99.90
8633;DHT22;4354;49.832;10.746;2023-06-22T07:05:52;32.90;95.50
8633;DHT22;4354;49.832;10.746;2023-06-22T07:08:19;32.70;95.30
8633;DHT22;4354;49.832;10.746;2023-06-22T07:10:46;33.20;90.70
8633;DHT22;4354;49.832;10.746;2023-06-22T07:13:13;33.60;84.80
8633;DHT22;4354;49.832;10.746;2023-06-22T07:15:40;34.00;78.80
8633;DHT22;4354;49.832;10.746;2023-06-22T07:18:07;34.40;66.60
8633;DHT22;4354;49.832;10.746;2023-06-22T07:20:33;34.40;61.10
8633;DHT22;4354;49.832;10.746;2023-06-22T07:23:01;34.40;55.50
8633;DHT22;4354;49.832;10.746;2023-06-22T07:25:28;34.60;49.80
8633;DHT22;4354;49.832;10.746;2023-06-22T07:28:03;34.90;41.30
8633;DHT22;4354;49.832;10.746;2023-06-22T07:30:31;35.50;36.30
8633;DHT22;4354;49.832;10.746;2023-06-22T07:33:00;36.10;29.10
8633;DHT22;4354;49.832;10.746;2023-06-22T07:35:31;35.90;24.00
8633;DHT22;4354;49.832;10.746;2023-06-22T07:37:58;35.90;20.10
8633;DHT22;4354;49.832;10.746;2023-06-22T07:40:29;35.90;16.90
8633;DHT22;4354;49.832;10.746;2023-06-22T07:43:00;35.30;14.70
8633;DHT22;4354;49.832;10.746;2023-06-22T07:45:26;35.30;13.50
8633;DHT22;4354;49.832;10.746;2023-06-22T07:47:53;35.20;10.60
8633;DHT22;4354;49.832;10.746;2023-06-22T07:50:20;35.70;9.40
8633;DHT22;4354;49.832;10.746;2023-06-22T07:52:47;36.30;4.40
8633;DHT22;4354;49.832;10.746;2023-06-22T07:55:14;36.80;1.00
8633;DHT22;4354;49.832;10.746;2023-06-22T07:57:41;37.50;1.00
8633;DHT22;4354;49.832;10.746;2023-06-22T08:00:09;37.50;1.00
8633;DHT22;4354;49.832;10.746;2023-06-22T08:02:46;37.30;1.00
8633;DHT22;4354;49.832;10.746;2023-06-22T08:05:14;37.60;5.10
8633;DHT22;4354;49.832;10.746;2023-06-22T08:07:48;37.80;1.00
8633;DHT22;4354;49.832;10.746;2023-06-22T08:10:15;38.40;1.00
8633;DHT22;4354;49.832;10.746;2023-06-22T08:12:43;38.40;1.00
8633;DHT22;4354;49.832;10.746;2023-06-22T08:15:10;38.50;1.00
8633;DHT22;4354;49.832;10.746;2023-06-22T08:17:37;38.60;1.00
8633;DHT22;4354;49.832;10.746;2023-06-22T08:20:06;38.80;1.00
8633;DHT22;4354;49.832;10.746;2023-06-22T08:22:38;39.40;1.00
8633;DHT22;4354;49.832;10.746;2023-06-22T08:25:06;40.00;1.00
8633;DHT22;4354;49.832;10.746;2023-06-22T08:27:33;39.10;1.00
8633;DHT22;4354;49.832;10.746;2023-06-22T08:30:00;38.40;1.00
8633;DHT22;4354;49.832;10.746;2023-06-22T08:32:30;39.10;1.00
8633;DHT22;4354;49.832;10.746;2023-06-22T08:34:59;39.30;1.00
8633;DHT22;4354;49.832;10.746;2023-06-22T08:37:26;38.60;1.00
8633;DHT22;4354;49.832;10.746;2023-06-22T08:39:59;39.00;1.00
8633;DHT22;4354;49.832;10.746;2023-06-22T08:42:27;39.30;1.00
8633;DHT22;4354;49.832;10.746;2023-06-22T08:44:55;39.60;1.00
8633;DHT22;4354;49.832;10.746;2023-06-22T08:47:21;39.30;1.00
8633;DHT22;4354;49.832;10.746;2023-06-22T08:49:49;39.60;1.00
8633;DHT22;4354;49.832;10.746;2023-06-22T08:52:18;39.10;1.00
8633;DHT22;4354;49.832;10.746;2023-06-22T08:54:47;39.90;1.00
8633;DHT22;4354;49.832;10.746;2023-06-22T08:57:14;40.30;1.00
8633;DHT22;4354;49.832;10.746;2023-06-22T08:59:41;40.60;1.00
8633;DHT22;4354;49.832;10.746;2023-06-22T09:02:08;40.40;1.00
8633;DHT22;4354;49.832;10.746;2023-06-22T09:04:35;41.20;1.00
8633;DHT22;4354;49.832;10.746;2023-06-22T09:07:03;41.10;1.00
8633;DHT22;4354;49.832;10.746;2023-06-22T09:09:30;40.50;1.00
8633;DHT22;4354;49.832;10.746;2023-06-22T09:11:57;41.30;1.00
8633;DHT22;4354;49.832;10.746;2023-06-22T09:14:24;41.30;1.00
8633;DHT22;4354;49.832;10.746;2023-06-22T09:16:51;40.80;1.00
8633;DHT22;4354;49.832;10.746;2023-06-22T09:19:17;41.10;1.00
8633;DHT22;4354;49.832;10.746;2023-06-22T09:21:44;42.10;1.00
8633;DHT22;4354;49.832;10.746;2023-06-22T09:24:11;41.80;1.00
8633;DHT22;4354;49.832;10.746;2023-06-22T09:26:38;41.10;1.00
8633;DHT22;4354;49.832;10.746;2023-06-22T09:29:05;41.70;1.00
8633;DHT22;4354;49.832;10.746;2023-06-22T09:31:32;41.40;1.00
8633;DHT22;4354;49.832;10.746;2023-06-22T09:33:59;41.20;1.00
8633;DHT22;4354;49.832;10.746;2023-06-22T09:36:26;41.10;1.00
8633;DHT22;4354;49.832;10.746;2023-06-22T09:38:53;41.80;1.00
8633;DHT22;4354;49.832;10.746;2023-06-22T09:41:25;42.00;1.00
8633;DHT22;4354;49.832;10.746;2023-06-22T09:43:52;41.70;1.00
8633;DHT22;4354;49.832;10.746;2023-06-22T09:46:22;42.00;1.00
8633;DHT22;4354;49.832;10.746;2023-06-22T09:48:51;42.10;1.00
8633;DHT22;4354;49.832;10.746;2023-06-22T09:51:18;42.20;1.00
8633;DHT22;4354;49.832;10.746;2023-06-22T09:53:46;41.20;1.00
8633;DHT22;4354;49.832;10.746;2023-06-22T09:56:13;41.30;1.00
8633;DHT22;4354;49.832;10.746;2023-06-22T09:58:45;41.50;1.00
8633;DHT22;4354;49.832;10.746;2023-06-22T10:01:13;41.80;1.00
8633;DHT22;4354;49.832;10.746;2023-06-22T10:03:43;42.70;1.00
8633;DHT22;4354;49.832;10.746;2023-06-22T10:06:10;43.40;1.00
8633;DHT22;4354;49.832;10.746;2023-06-22T10:08:37;43.20;1.00
8633;DHT22;4354;49.832;10.746;2023-06-22T10:11:04;43.50;1.00
8633;DHT22;4354;49.832;10.746;2023-06-22T10:13:31;43.60;1.00
8633;DHT22;4354;49.832;10.746;2023-06-22T10:15:57;43.90;1.00
8633;DHT22;4354;49.832;10.746;2023-06-22T10:18:24;43.90;1.00
8633;DHT22;4354;49.832;10.746;2023-06-22T10:20:52;44.20;1.00
8633;DHT22;4354;49.832;10.746;2023-06-22T10:23:20;43.30;1.00
8633;DHT22;4354;49.832;10.746;2023-06-22T10:25:46;43.50;1.00
8633;DHT22;4354;49.832;10.746;2023-06-22T10:28:14;43.30;1.00
8633;DHT22;4354;49.832;10.746;2023-06-22T10:30:41;42.40;1.00
8633;DHT22;4354;49.832;10.746;2023-06-22T10:33:09;42.80;1.00
8633;DHT22;4354;49.832;10.746;2023-06-22T10:35:36;42.20;1.00
8633;DHT22;4354;49.832;10.746;2023-06-22T10:38:06;41.90;1.00
8633;DHT22;4354;49.832;10.746;2023-06-22T10:40:34;41.50;1.00
8633;DHT22;4354;49.832;10.746;2023-06-22T10:43:01;41.40;1.00
8633;DHT22;4354;49.832;10.746;2023-06-22T10:45:29;41.30;1.00
8633;DHT22;4354;49.832;10.746;2023-06-22T10:47:56;41.00;1.00
8633;DHT22;4354;49.832;10.746;2023-06-22T10:50:24;41.40;1.00
8633;DHT22;4354;49.832;10.746;2023-06-22T10:52:52;41.90;1.00
8633;DHT22;4354;49.832;10.746;2023-06-22T10:55:18;42.60;1.00
8633;DHT22;4354;49.832;10.746;2023-06-22T10:57:48;42.90;1.00
8633;DHT22;4354;49.832;10.746;2023-06-22T11:00:16;43.50;1.00
8633;DHT22;4354;49.832;10.746;2023-06-22T11:02:43;43.00;1.00
8633;DHT22;4354;49.832;10.746;2023-06-22T11:05:11;42.70;1.00
8633;DHT22;4354;49.832;10.746;2023-06-22T11:07:42;42.60;1.00
8633;DHT22;4354;49.832;10.746;2023-06-22T11:10:10;43.20;1.00
8633;DHT22;4354;49.832;10.746;2023-06-22T11:12:37;43.10;1.00
8633;DHT22;4354;49.832;10.746;2023-06-22T11:15:04;42.20;1.00
8633;DHT22;4354;49.832;10.746;2023-06-22T11:17:31;42.70;1.00
8633;DHT22;4354;49.832;10.746;2023-06-22T11:19:58;42.70;1.00
8633;DHT22;4354;49.832;10.746;2023-06-22T11:22:27;41.80;1.00
8633;DHT22;4354;49.832;10.746;2023-06-22T11:24:54;41.50;1.00
8633;DHT22;4354;49.832;10.746;2023-06-22T11:27:20;40.70;1.00
8633;DHT22;4354;49.832;10.746;2023-06-22T11:29:47;39.90;1.00
8633;DHT22;4354;49.832;10.746;2023-06-22T11:32:14;39.30;1.00
8633;DHT22;4354;49.832;10.746;2023-06-22T11:34:41;38.70;1.00
8633;DHT22;4354;49.832;10.746;2023-06-22T11:37:07;38.10;1.00
8633;DHT22;4354;49.832;10.746;2023-06-22T11:39:34;37.60;1.00
8633;DHT22;4354;49.832;10.746;2023-06-22T11:42:13;37.40;1.00
8633;DHT22;4354;49.832;10.746;2023-06-22T11:44:40;37.10;1.00
8633;DHT22;4354;49.832;10.746;2023-06-22T11:47:06;37.20;1.00
8633;DHT22;4354;49.832;10.746;2023-06-22T11:49:33;37.30;1.00
8633;DHT22;4354;49.832;10.746;2023-06-22T11:52:00;37.60;1.00
8633;DHT22;4354;49.832;10.746;2023-06-22T11:54:27;37.80;1.00
8633;DHT22;4354;49.832;10.746;2023-06-22T11:56:54;37.60;1.00
8633;DHT22;4354;49.832;10.746;2023-06-22T11:59:21;37.50;1.00
8633;DHT22;4354;49.832;10.746;2023-06-22T12:01:48;37.40;1.00
8633;DHT22;4354;49.832;10.746;2023-06-22T12:04:17;37.00;1.00
8633;DHT22;4354;49.832;10.746;2023-06-22T12:06:44;37.10;1.00
8633;DHT22;4354;49.832;10.746;2023-06-22T12:09:11;36.80;1.00
8633;DHT22;4354;49.832;10.746;2023-06-22T12:11:40;36.80;1.00
8633;DHT22;4354;49.832;10.746;2023-06-22T12:14:07;37.20;1.00
8633;DHT22;4354;49.832;10.746;2023-06-22T12:16:34;37.70;1.00
8633;DHT22;4354;49.832;10.746;2023-06-22T12:19:01;37.90;1.00
8633;DHT22;4354;49.832;10.746;2023-06-22T12:21:27;37.30;1.00
8633;DHT22;4354;49.832;10.746;2023-06-22T12:23:55;37.50;1.00
8633;DHT22;4354;49.832;10.746;2023-06-22T12:26:22;37.60;1.00
8633;DHT22;4354;49.832;10.746;2023-06-22T12:28:49;37.60;1.00
8633;DHT22;4354;49.832;10.746;2023-06-22T12:31:17;37.40;1.00
8633;DHT22;4354;49.832;10.746;2023-06-22T12:33:44;37.40;1.00
8633;DHT22;4354;49.832;10.746;2023-06-22T12:36:11;37.50;1.00
8633;DHT22;4354;49.832;10.746;2023-06-22T12:38:37;37.60;1.00
8633;DHT22;4354;49.832;10.746;2023-06-22T12:41:04;37.90;1.00
8633;DHT22;4354;49.832;10.746;2023-06-22T12:43:31;38.00;1.00
8633;DHT22;4354;49.832;10.746;2023-06-22T12:45:58;38.20;1.00
8633;DHT22;4354;49.832;10.746;2023-06-22T12:48:26;38.30;1.00
8633;DHT22;4354;49.832;10.746;2023-06-22T12:50:53;38.20;1.00
8633;DHT22;4354;49.832;10.746;2023-06-22T12:53:21;38.10;1.00
8633;DHT22;4354;49.832;10.746;2023-06-22T12:55:50;38.00;1.00
8633;DHT22;4354;49.832;10.746;2023-06-22T12:58:17;38.00;1.00
8633;DHT22;4354;49.832;10.746;2023-06-22T13:00:44;37.40;1.00
8633;DHT22;4354;49.832;10.746;2023-06-22T13:03:11;37.10;1.00
8633;DHT22;4354;49.832;10.746;2023-06-22T13:05:38;36.50;1.00
8633;DHT22;4354;49.832;10.746;2023-06-22T13:08:05;36.40;1.00
8633;DHT22;4354;49.832;10.746;2023-06-22T13:10:32;36.20;1.00
8633;DHT22;4354;49.832;10.746;2023-06-22T13:12:59;36.10;1.00
8633;DHT22;4354;49.832;10.746;2023-06-22T13:15:28;35.90;1.00
8633;DHT22;4354;49.832;10.746;2023-06-22T13:17:56;35.80;1.00
8633;DHT22;4354;49.832;10.746;2023-06-22T13:20:23;35.80;1.00
8633;DHT22;4354;49.832;10.746;2023-06-22T13:22:49;35.80;1.00
8633;DHT22;4354;49.832;10.746;2023-06-22T13:25:16;35.70;1.00
8633;DHT22;4354;49.832;10.746;2023-06-22T13:27:46;35.80;1.00
8633;DHT22;4354;49.832;10.746;2023-06-22T13:30:13;35.70;1.00
8633;DHT22;4354;49.832;10.746;2023-06-22T13:32:41;35.80;1.00
8633;DHT22;4354;49.832;10.746;2023-06-22T13:35:09;35.70;1.00
8633;DHT22;4354;49.832;10.746;2023-06-22T13:37:37;35.40;1.00
8633;DHT22;4354;49.832;10.746;2023-06-22T13:40:08;35.30;1.00
8633;DHT22;4354;49.832;10.746;2023-06-22T13:42:35;35.40;1.00
8633;DHT22;4354;49.832;10.746;2023-06-22T13:45:02;35.40;1.00
8633;DHT22;4354;49.832;10.746;2023-06-22T13:47:29;34.90;1.00
8633;DHT22;4354;49.832;10.746;2023-06-22T13:49:58;34.80;1.00
8633;DHT22;4354;49.832;10.746;2023-06-22T13:52:25;34.80;1.00
8633;DHT22;4354;49.832;10.746;2023-06-22T13:54:52;34.70;1.00
8633;DHT22;4354;49.832;10.746;2023-06-22T13:57:18;34.40;1.00
8633;DHT22;4354;49.832;10.746;2023-06-22T13:59:45;34.40;1.00
8633;DHT22;4354;49.832;10.746;2023-06-22T14:02:12;34.00;1.00
8633;DHT22;4354;49.832;10.746;2023-06-22T14:04:39;33.70;1.00
8633;DHT22;4354;49.832;10.746;2023-06-22T14:07:06;33.40;1.00
8633;DHT22;4354;49.832;10.746;2023-06-22T14:09:34;33.40;1.00
8633;DHT22;4354;49.832;10.746;2023-06-22T14:12:05;33.60;1.00
8633;DHT22;4354;49.832;10.746;2023-06-22T14:14:33;33.80;1.00
8633;DHT22;4354;49.832;10.746;2023-06-22T14:17:00;34.20;1.00
8633;DHT22;4354;49.832;10.746;2023-06-22T14:19:27;34.50;1.00
8633;DHT22;4354;49.832;10.746;2023-06-22T14:21:54;34.80;1.00
8633;DHT22;4354;49.832;10.746;2023-06-22T14:24:21;35.10;1.00
8633;DHT22;4354;49.832;10.746;2023-06-22T14:26:51;35.20;1.00
8633;DHT22;4354;49.832;10.746;2023-06-22T14:29:18;35.40;1.00
8633;DHT22;4354;49.832;10.746;2023-06-22T14:31:45;35.60;1.00
8633;DHT22;4354;49.832;10.746;2023-06-22T14:34:13;35.60;1.00
8633;DHT22;4354;49.832;10.746;2023-06-22T14:36:40;35.70;1.00
8633;DHT22;4354;49.832;10.746;2023-06-22T14:39:08;35.50;1.00
8633;DHT22;4354;49.832;10.746;2023-06-22T14:41:35;35.10;1.00
8633;DHT22;4354;49.832;10.746;2023-06-22T14:44:02;34.70;1.00
8633;DHT22;4354;49.832;10.746;2023-06-22T14:46:29;34.60;1.00
8633;DHT22;4354;49.832;10.746;2023-06-22T14:48:56;34.60;1.00
8633;DHT22;4354;49.832;10.746;2023-06-22T14:51:23;34.50;1.00
8633;DHT22;4354;49.832;10.746;2023-06-22T14:53:50;34.60;1.00
8633;DHT22;4354;49.832;10.746;2023-06-22T14:56:17;34.70;1.00
8633;DHT22;4354;49.832;10.746;2023-06-22T14:58:44;34.90;1.00
8633;DHT22;4354;49.832;10.746;2023-06-22T15:01:16;34.80;1.00
8633;DHT22;4354;49.832;10.746;2023-06-22T15:03:43;34.60;1.00
8633;DHT22;4354;49.832;10.746;2023-06-22T15:06:10;34.50;1.00
8633;DHT22;4354;49.832;10.746;2023-06-22T15:08:38;34.40;1.00
8633;DHT22;4354;49.832;10.746;2023-06-22T15:11:05;34.40;1.00
8633;DHT22;4354;49.832;10.746;2023-06-22T15:13:33;34.30;1.00
8633;DHT22;4354;49.832;10.746;2023-06-22T15:16:02;34.20;1.00
8633;DHT22;4354;49.832;10.746;2023-06-22T15:18:30;34.10;1.00
8633;DHT22;4354;49.832;10.746;2023-06-22T15:20:57;34.00;1.00
8633;DHT22;4354;49.832;10.746;2023-06-22T15:23:26;33.70;1.00
8633;DHT22;4354;49.832;10.746;2023-06-22T15:25:52;33.60;1.00
8633;DHT22;4354;49.832;10.746;2023-06-22T15:28:19;33.70;1.00
8633;DHT22;4354;49.832;10.746;2023-06-22T15:30:51;33.80;1.00
8633;DHT22;4354;49.832;10.746;2023-06-22T15:33:18;33.90;1.00
8633;DHT22;4354;49.832;10.746;2023-06-22T15:35:45;34.00;1.00
8633;DHT22;4354;49.832;10.746;2023-06-22T15:38:12;34.10;1.00
8633;DHT22;4354;49.832;10.746;2023-06-22T15:40:39;34.00;1.00
8633;DHT22;4354;49.832;10.746;2023-06-22T15:43:10;34.10;1.00
8633;DHT22;4354;49.832;10.746;2023-06-22T15:45:37;33.90;1.00
8633;DHT22;4354;49.832;10.746;2023-06-22T15:48:04;33.90;1.00
8633;DHT22;4354;49.832;10.746;2023-06-22T15:50:30;33.80;1.00
8633;DHT22;4354;49.832;10.746;2023-06-22T15:52:58;33.90;1.00
8633;DHT22;4354;49.832;10.746;2023-06-22T15:55:25;33.90;1.00
8633;DHT22;4354;49.832;10.746;2023-06-22T15:57:53;33.90;1.00
8633;DHT22;4354;49.832;10.746;2023-06-22T16:00:21;33.80;1.00
8633;DHT22;4354;49.832;10.746;2023-06-22T16:02:48;33.70;1.00
8633;DHT22;4354;49.832;10.746;2023-06-22T16:05:15;33.70;1.00
8633;DHT22;4354;49.832;10.746;2023-06-22T16:07:42;33.40;1.00